sensor_id;sensor_type;location;lat;lon;timestamp;P1;durP1;ratioP1;P2;durP2;ratioP2
53269;SDS011;39159;45.634;9.420;2022-10-31T00:01:28;9.93;;;3.33;;
53269;SDS011;39159;45.634;9.420;2022-10-31T00:03:56;9.02;;;3.10;;
53269;SDS011;39159;45.634;9.420;2022-10-31T00:06:22;11.10;;;3.53;;
53269;SDS011;39159;45.634;9.420;2022-10-31T00:08:52;11.20;;;3.15;;
53269;SDS011;39159;45.634;9.420;2022-10-31T00:11:19;12.27;;;2.90;;
53269;SDS011;39159;45.634;9.420;2022-10-31T00:13:45;9.13;;;3.28;;
53269;SDS011;39159;45.634;9.420;2022-10-31T00:16:17;9.90;;;3.85;;
53269;SDS011;39159;45.634;9.420;2022-10-31T00:18:48;7.25;;;2.80;;
53269;SDS011;39159;45.634;9.420;2022-10-31T00:21:14;10.43;;;3.58;;
53269;SDS011;39159;45.634;9.420;2022-10-31T00:23:40;12.98;;;3.72;;
53269;SDS011;39159;45.634;9.420;2022-10-31T00:26:05;15.30;;;3.83;;
53269;SDS011;39159;45.634;9.420;2022-10-31T00:28:31;11.20;;;3.55;;
53269;SDS011;39159;45.634;9.420;2022-10-31T00:30:58;10.18;;;2.95;;
53269;SDS011;39159;45.634;9.420;2022-10-31T00:33:25;10.35;;;3.58;;
53269;SDS011;39159;45.634;9.420;2022-10-31T00:35:50;13.25;;;3.55;;
53269;SDS011;39159;45.634;9.420;2022-10-31T00:38:16;12.35;;;3.83;;
53269;SDS011;39159;45.634;9.420;2022-10-31T00:40:42;16.50;;;3.53;;
53269;SDS011;39159;45.634;9.420;2022-10-31T00:43:08;11.38;;;3.35;;
53269;SDS011;39159;45.634;9.420;2022-10-31T00:45:33;8.13;;;3.20;;
53269;SDS011;39159;45.634;9.420;2022-10-31T00:47:58;13.35;;;3.42;;
53269;SDS011;39159;45.634;9.420;2022-10-31T00:50:24;13.88;;;3.88;;
53269;SDS011;39159;45.634;9.420;2022-10-31T00:52:49;16.10;;;3.58;;
53269;SDS011;39159;45.634;9.420;2022-10-31T00:55:14;6.82;;;3.10;;
53269;SDS011;39159;45.634;9.420;2022-10-31T00:57:40;10.70;;;3.53;;
53269;SDS011;39159;45.634;9.420;2022-10-31T01:00:05;10.63;;;3.28;;
53269;SDS011;39159;45.634;9.420;2022-10-31T01:02:31;9.30;;;3.92;;
53269;SDS011;39159;45.634;9.420;2022-10-31T01:04:57;15.60;;;3.90;;
53269;SDS011;39159;45.634;9.420;2022-10-31T01:07:22;15.88;;;4.50;;
53269;SDS011;39159;45.634;9.420;2022-10-31T01:09:47;10.73;;;3.33;;
53269;SDS011;39159;45.634;9.420;2022-10-31T01:12:13;10.75;;;3.35;;
53269;SDS011;39159;45.634;9.420;2022-10-31T01:14:42;11.30;;;3.13;;
53269;SDS011;39159;45.634;9.420;2022-10-31T01:17:08;10.80;;;3.33;;
53269;SDS011;39159;45.634;9.420;2022-10-31T01:19:33;7.70;;;3.58;;
53269;SDS011;39159;45.634;9.420;2022-10-31T01:21:59;10.18;;;4.05;;
53269;SDS011;39159;45.634;9.420;2022-10-31T01:24:24;11.65;;;3.53;;
53269;SDS011;39159;45.634;9.420;2022-10-31T01:26:49;12.00;;;3.38;;
53269;SDS011;39159;45.634;9.420;2022-10-31T01:29:15;13.20;;;3.05;;
53269;SDS011;39159;45.634;9.420;2022-10-31T01:31:40;6.75;;;3.22;;
53269;SDS011;39159;45.634;9.420;2022-10-31T01:34:06;10.60;;;3.38;;
53269;SDS011;39159;45.634;9.420;2022-10-31T01:36:35;8.45;;;3.17;;
53269;SDS011;39159;45.634;9.420;2022-10-31T01:39:04;8.45;;;3.05;;
53269;SDS011;39159;45.634;9.420;2022-10-31T01:41:35;14.35;;;3.30;;
53269;SDS011;39159;45.634;9.420;2022-10-31T01:44:51;9.63;;;3.38;;
53269;SDS011;39159;45.634;9.420;2022-10-31T01:52:11;8.23;;;2.70;;
53269;SDS011;39159;45.634;9.420;2022-10-31T01:54:39;14.48;;;4.05;;
53269;SDS011;39159;45.634;9.420;2022-10-31T01:57:08;11.10;;;3.72;;
53269;SDS011;39159;45.634;9.420;2022-10-31T01:59:39;12.48;;;2.95;;
53269;SDS011;39159;45.634;9.420;2022-10-31T02:02:07;10.30;;;3.45;;
53269;SDS011;39159;45.634;9.420;2022-10-31T02:04:33;13.98;;;3.55;;
53269;SDS011;39159;45.634;9.420;2022-10-31T02:07:07;11.18;;;3.08;;
53269;SDS011;39159;45.634;9.420;2022-10-31T02:09:37;9.02;;;3.15;;
53269;SDS011;39159;45.634;9.420;2022-10-31T02:12:04;14.85;;;3.50;;
53269;SDS011;39159;45.634;9.420;2022-10-31T02:14:31;12.68;;;2.97;;
53269;SDS011;39159;45.634;9.420;2022-10-31T02:16:57;11.70;;;2.80;;
53269;SDS011;39159;45.634;9.420;2022-10-31T02:22:32;8.30;;;3.42;;
53269;SDS011;39159;45.634;9.420;2022-10-31T02:25:04;9.48;;;3.20;;
53269;SDS011;39159;45.634;9.420;2022-10-31T02:33:42;9.43;;;3.15;;
53269;SDS011;39159;45.634;9.420;2022-10-31T02:36:18;11.38;;;3.47;;
53269;SDS011;39159;45.634;9.420;2022-10-31T02:41:46;10.70;;;3.47;;
53269;SDS011;39159;45.634;9.420;2022-10-31T02:44:36;8.43;;;3.33;;
53269;SDS011;39159;45.634;9.420;2022-10-31T02:49:40;10.40;;;3.55;;
53269;SDS011;39159;45.634;9.420;2022-10-31T02:52:34;9.43;;;3.95;;
53269;SDS011;39159;45.634;9.420;2022-10-31T02:55:41;15.68;;;3.60;;
53269;SDS011;39159;45.634;9.420;2022-10-31T02:57:55;7.70;;;3.00;;
53269;SDS011;39159;45.634;9.420;2022-10-31T03:00:24;15.30;;;3.47;;
53269;SDS011;39159;45.634;9.420;2022-10-31T03:11:17;10.52;;;3.83;;
53269;SDS011;39159;45.634;9.420;2022-10-31T03:13:50;16.42;;;3.38;;
53269;SDS011;39159;45.634;9.420;2022-10-31T03:18:56;11.50;;;3.17;;
53269;SDS011;39159;45.634;9.420;2022-10-31T03:21:24;11.20;;;3.40;;
53269;SDS011;39159;45.634;9.420;2022-10-31T03:23:57;11.20;;;3.63;;
53269;SDS011;39159;45.634;9.420;2022-10-31T03:26:25;17.20;;;3.78;;
53269;SDS011;39159;45.634;9.420;2022-10-31T03:31:26;17.02;;;3.53;;
53269;SDS011;39159;45.634;9.420;2022-10-31T03:33:55;13.65;;;3.25;;
53269;SDS011;39159;45.634;9.420;2022-10-31T03:36:23;13.40;;;3.38;;
53269;SDS011;39159;45.634;9.420;2022-10-31T03:38:51;18.20;;;3.90;;
53269;SDS011;39159;45.634;9.420;2022-10-31T03:41:18;8.48;;;3.78;;
53269;SDS011;39159;45.634;9.420;2022-10-31T03:43:54;9.60;;;2.90;;
53269;SDS011;39159;45.634;9.420;2022-10-31T03:46:24;13.68;;;3.45;;
53269;SDS011;39159;45.634;9.420;2022-10-31T03:48:50;13.32;;;3.10;;
53269;SDS011;39159;45.634;9.420;2022-10-31T03:51:19;8.00;;;3.13;;
53269;SDS011;39159;45.634;9.420;2022-10-31T03:53:52;10.57;;;3.55;;
53269;SDS011;39159;45.634;9.420;2022-10-31T03:56:39;9.30;;;3.33;;
53269;SDS011;39159;45.634;9.420;2022-10-31T03:59:20;9.57;;;3.30;;
53269;SDS011;39159;45.634;9.420;2022-10-31T04:02:07;9.20;;;2.88;;
53269;SDS011;39159;45.634;9.420;2022-10-31T04:04:38;15.75;;;3.55;;
53269;SDS011;39159;45.634;9.420;2022-10-31T04:07:04;10.82;;;3.42;;
53269;SDS011;39159;45.634;9.420;2022-10-31T04:09:33;11.45;;;3.55;;
53269;SDS011;39159;45.634;9.420;2022-10-31T04:12:02;11.02;;;4.05;;
53269;SDS011;39159;45.634;9.420;2022-10-31T04:14:31;8.00;;;3.17;;
53269;SDS011;39159;45.634;9.420;2022-10-31T04:16:58;11.52;;;3.20;;
53269;SDS011;39159;45.634;9.420;2022-10-31T04:19:26;10.43;;;3.03;;
53269;SDS011;39159;45.634;9.420;2022-10-31T04:21:51;13.63;;;3.88;;
53269;SDS011;39159;45.634;9.420;2022-10-31T04:24:17;8.27;;;2.65;;
53269;SDS011;39159;45.634;9.420;2022-10-31T04:26:42;10.70;;;2.80;;
53269;SDS011;39159;45.634;9.420;2022-10-31T04:29:07;7.00;;;3.10;;
53269;SDS011;39159;45.634;9.420;2022-10-31T04:31:33;7.75;;;3.15;;
53269;SDS011;39159;45.634;9.420;2022-10-31T04:33:58;11.27;;;3.30;;
53269;SDS011;39159;45.634;9.420;2022-10-31T04:36:24;9.50;;;3.13;;
53269;SDS011;39159;45.634;9.420;2022-10-31T04:38:49;7.28;;;3.13;;
53269;SDS011;39159;45.634;9.420;2022-10-31T04:41:14;7.85;;;3.22;;
53269;SDS011;39159;45.634;9.420;2022-10-31T04:43:40;8.85;;;2.83;;
53269;SDS011;39159;45.634;9.420;2022-10-31T04:46:05;9.35;;;3.25;;
53269;SDS011;39159;45.634;9.420;2022-10-31T04:48:30;14.00;;;3.33;;
53269;SDS011;39159;45.634;9.420;2022-10-31T04:50:59;9.13;;;3.40;;
53269;SDS011;39159;45.634;9.420;2022-10-31T04:53:25;7.53;;;2.90;;
53269;SDS011;39159;45.634;9.420;2022-10-31T04:55:50;10.27;;;3.20;;
53269;SDS011;39159;45.634;9.420;2022-10-31T04:58:16;12.50;;;3.78;;
53269;SDS011;39159;45.634;9.420;2022-10-31T05:00:41;11.32;;;3.70;;
53269;SDS011;39159;45.634;9.420;2022-10-31T05:03:07;10.60;;;3.20;;
53269;SDS011;39159;45.634;9.420;2022-10-31T05:05:32;14.00;;;3.35;;
53269;SDS011;39159;45.634;9.420;2022-10-31T05:07:58;12.30;;;3.67;;
53269;SDS011;39159;45.634;9.420;2022-10-31T05:10:24;9.45;;;3.10;;
53269;SDS011;39159;45.634;9.420;2022-10-31T05:12:52;10.68;;;2.67;;
53269;SDS011;39159;45.634;9.420;2022-10-31T05:15:20;12.30;;;3.88;;
53269;SDS011;39159;45.634;9.420;2022-10-31T05:17:46;7.93;;;2.92;;
53269;SDS011;39159;45.634;9.420;2022-10-31T05:20:12;10.38;;;3.03;;
53269;SDS011;39159;45.634;9.420;2022-10-31T05:22:45;11.52;;;3.38;;
53269;SDS011;39159;45.634;9.420;2022-10-31T05:25:14;13.27;;;3.42;;
53269;SDS011;39159;45.634;9.420;2022-10-31T05:27:42;12.85;;;3.65;;
53269;SDS011;39159;45.634;9.420;2022-10-31T05:30:09;12.23;;;3.28;;
53269;SDS011;39159;45.634;9.420;2022-10-31T05:32:40;7.60;;;2.97;;
53269;SDS011;39159;45.634;9.420;2022-10-31T05:35:07;8.48;;;3.15;;
53269;SDS011;39159;45.634;9.420;2022-10-31T05:37:36;11.55;;;2.97;;
53269;SDS011;39159;45.634;9.420;2022-10-31T05:40:03;13.18;;;3.35;;
53269;SDS011;39159;45.634;9.420;2022-10-31T05:42:30;13.05;;;3.22;;
53269;SDS011;39159;45.634;9.420;2022-10-31T05:44:55;11.00;;;3.78;;
53269;SDS011;39159;45.634;9.420;2022-10-31T05:47:20;11.27;;;3.25;;
53269;SDS011;39159;45.634;9.420;2022-10-31T05:49:46;7.95;;;2.83;;
53269;SDS011;39159;45.634;9.420;2022-10-31T05:52:11;6.60;;;2.70;;
53269;SDS011;39159;45.634;9.420;2022-10-31T05:54:37;8.82;;;3.38;;
53269;SDS011;39159;45.634;9.420;2022-10-31T05:57:02;8.35;;;3.25;;
53269;SDS011;39159;45.634;9.420;2022-10-31T05:59:28;11.05;;;3.20;;
53269;SDS011;39159;45.634;9.420;2022-10-31T06:01:53;10.30;;;3.60;;
53269;SDS011;39159;45.634;9.420;2022-10-31T06:04:18;13.82;;;3.97;;
53269;SDS011;39159;45.634;9.420;2022-10-31T06:06:44;10.15;;;3.08;;
53269;SDS011;39159;45.634;9.420;2022-10-31T06:09:09;11.75;;;3.55;;
53269;SDS011;39159;45.634;9.420;2022-10-31T06:11:35;8.57;;;3.22;;
53269;SDS011;39159;45.634;9.420;2022-10-31T06:14:00;8.02;;;3.13;;
53269;SDS011;39159;45.634;9.420;2022-10-31T06:16:25;10.82;;;3.13;;
53269;SDS011;39159;45.634;9.420;2022-10-31T06:18:51;11.05;;;3.55;;
53269;SDS011;39159;45.634;9.420;2022-10-31T06:21:16;9.98;;;3.60;;
53269;SDS011;39159;45.634;9.420;2022-10-31T06:23:42;8.48;;;3.15;;
53269;SDS011;39159;45.634;9.420;2022-10-31T06:26:07;9.00;;;2.80;;
53269;SDS011;39159;45.634;9.420;2022-10-31T06:28:32;8.45;;;2.80;;
53269;SDS011;39159;45.634;9.420;2022-10-31T06:30:58;10.45;;;3.28;;
53269;SDS011;39159;45.634;9.420;2022-10-31T06:33:23;16.02;;;3.08;;
53269;SDS011;39159;45.634;9.420;2022-10-31T06:35:49;12.90;;;2.72;;
53269;SDS011;39159;45.634;9.420;2022-10-31T06:38:14;13.05;;;3.10;;
53269;SDS011;39159;45.634;9.420;2022-10-31T06:40:40;16.40;;;3.25;;
53269;SDS011;39159;45.634;9.420;2022-10-31T06:43:05;17.27;;;3.53;;
53269;SDS011;39159;45.634;9.420;2022-10-31T06:45:30;11.23;;;3.15;;
53269;SDS011;39159;45.634;9.420;2022-10-31T06:47:56;12.30;;;3.13;;
53269;SDS011;39159;45.634;9.420;2022-10-31T06:50:22;10.60;;;2.83;;
53269;SDS011;39159;45.634;9.420;2022-10-31T06:52:51;11.18;;;3.25;;
53269;SDS011;39159;45.634;9.420;2022-10-31T06:55:20;12.18;;;3.80;;
53269;SDS011;39159;45.634;9.420;2022-10-31T06:57:51;10.45;;;2.92;;
53269;SDS011;39159;45.634;9.420;2022-10-31T07:00:18;9.18;;;2.90;;
53269;SDS011;39159;45.634;9.420;2022-10-31T07:02:52;9.93;;;3.47;;
53269;SDS011;39159;45.634;9.420;2022-10-31T07:05:25;12.82;;;3.05;;
53269;SDS011;39159;45.634;9.420;2022-10-31T07:07:52;15.15;;;3.53;;
53269;SDS011;39159;45.634;9.420;2022-10-31T07:10:22;9.52;;;2.90;;
53269;SDS011;39159;45.634;9.420;2022-10-31T07:12:53;7.75;;;3.00;;
53269;SDS011;39159;45.634;9.420;2022-10-31T07:15:23;10.10;;;2.83;;
53269;SDS011;39159;45.634;9.420;2022-10-31T07:17:49;10.10;;;3.05;;
53269;SDS011;39159;45.634;9.420;2022-10-31T07:20:14;11.10;;;3.20;;
53269;SDS011;39159;45.634;9.420;2022-10-31T07:22:40;15.85;;;3.38;;
53269;SDS011;39159;45.634;9.420;2022-10-31T07:25:05;15.02;;;3.45;;
53269;SDS011;39159;45.634;9.420;2022-10-31T07:27:35;8.75;;;2.85;;
53269;SDS011;39159;45.634;9.420;2022-10-31T07:30:04;14.82;;;3.60;;
53269;SDS011;39159;45.634;9.420;2022-10-31T07:32:40;12.45;;;3.33;;
53269;SDS011;39159;45.634;9.420;2022-10-31T07:35:08;10.85;;;3.45;;
53269;SDS011;39159;45.634;9.420;2022-10-31T07:37:35;12.02;;;3.63;;
53269;SDS011;39159;45.634;9.420;2022-10-31T07:40:02;9.15;;;2.78;;
53269;SDS011;39159;45.634;9.420;2022-10-31T07:42:28;6.55;;;2.70;;
53269;SDS011;39159;45.634;9.420;2022-10-31T07:44:53;13.32;;;3.33;;
53269;SDS011;39159;45.634;9.420;2022-10-31T07:47:19;16.42;;;3.97;;
53269;SDS011;39159;45.634;9.420;2022-10-31T07:49:44;21.17;;;3.60;;
53269;SDS011;39159;45.634;9.420;2022-10-31T07:52:09;17.50;;;3.67;;
53269;SDS011;39159;45.634;9.420;2022-10-31T07:54:35;10.70;;;3.85;;
53269;SDS011;39159;45.634;9.420;2022-10-31T07:57:00;10.05;;;3.28;;
53269;SDS011;39159;45.634;9.420;2022-10-31T07:59:26;11.38;;;2.95;;
53269;SDS011;39159;45.634;9.420;2022-10-31T08:01:52;14.15;;;3.53;;
53269;SDS011;39159;45.634;9.420;2022-10-31T08:04:18;9.57;;;3.00;;
53269;SDS011;39159;45.634;9.420;2022-10-31T08:06:43;10.82;;;2.95;;
53269;SDS011;39159;45.634;9.420;2022-10-31T08:09:08;10.60;;;3.50;;
53269;SDS011;39159;45.634;9.420;2022-10-31T08:11:34;10.50;;;3.15;;
53269;SDS011;39159;45.634;9.420;2022-10-31T08:13:59;8.68;;;2.92;;
53269;SDS011;39159;45.634;9.420;2022-10-31T08:16:26;13.02;;;3.10;;
53269;SDS011;39159;45.634;9.420;2022-10-31T08:18:51;8.63;;;2.55;;
53269;SDS011;39159;45.634;9.420;2022-10-31T08:21:18;11.60;;;2.95;;
53269;SDS011;39159;45.634;9.420;2022-10-31T08:23:43;10.60;;;3.35;;
53269;SDS011;39159;45.634;9.420;2022-10-31T08:26:09;11.02;;;2.65;;
53269;SDS011;39159;45.634;9.420;2022-10-31T08:28:34;8.80;;;2.80;;
53269;SDS011;39159;45.634;9.420;2022-10-31T08:31:00;12.38;;;3.38;;
53269;SDS011;39159;45.634;9.420;2022-10-31T08:33:25;16.70;;;3.25;;
53269;SDS011;39159;45.634;9.420;2022-10-31T08:35:50;6.63;;;2.33;;
53269;SDS011;39159;45.634;9.420;2022-10-31T08:38:16;11.18;;;2.92;;
53269;SDS011;39159;45.634;9.420;2022-10-31T08:40:41;9.75;;;3.20;;
53269;SDS011;39159;45.634;9.420;2022-10-31T08:43:13;5.90;;;2.40;;
53269;SDS011;39159;45.634;9.420;2022-10-31T08:45:40;8.27;;;2.72;;
53269;SDS011;39159;45.634;9.420;2022-10-31T08:48:09;10.27;;;3.15;;
53269;SDS011;39159;45.634;9.420;2022-10-31T08:50:36;14.45;;;3.60;;
53269;SDS011;39159;45.634;9.420;2022-10-31T08:53:03;11.82;;;3.47;;
53269;SDS011;39159;45.634;9.420;2022-10-31T08:55:32;14.80;;;3.53;;
53269;SDS011;39159;45.634;9.420;2022-10-31T08:57:58;9.15;;;2.70;;
53269;SDS011;39159;45.634;9.420;2022-10-31T09:00:24;9.23;;;3.00;;
53269;SDS011;39159;45.634;9.420;2022-10-31T09:02:56;11.88;;;3.67;;
53269;SDS011;39159;45.634;9.420;2022-10-31T09:05:22;10.55;;;3.70;;
53269;SDS011;39159;45.634;9.420;2022-10-31T09:07:48;13.05;;;3.90;;
53269;SDS011;39159;45.634;9.420;2022-10-31T09:10:13;17.88;;;4.05;;
53269;SDS011;39159;45.634;9.420;2022-10-31T09:12:39;13.43;;;3.08;;
53269;SDS011;39159;45.634;9.420;2022-10-31T09:15:04;9.77;;;2.95;;
53269;SDS011;39159;45.634;9.420;2022-10-31T09:17:31;14.23;;;3.05;;
53269;SDS011;39159;45.634;9.420;2022-10-31T09:19:57;8.23;;;3.03;;
53269;SDS011;39159;45.634;9.420;2022-10-31T09:22:22;13.55;;;2.35;;
53269;SDS011;39159;45.634;9.420;2022-10-31T09:24:47;12.65;;;3.13;;
53269;SDS011;39159;45.634;9.420;2022-10-31T09:27:13;13.02;;;3.28;;
53269;SDS011;39159;45.634;9.420;2022-10-31T09:29:38;10.00;;;3.03;;
53269;SDS011;39159;45.634;9.420;2022-10-31T09:32:04;14.50;;;3.55;;
53269;SDS011;39159;45.634;9.420;2022-10-31T09:34:29;11.90;;;3.60;;
53269;SDS011;39159;45.634;9.420;2022-10-31T09:36:55;18.45;;;3.75;;
53269;SDS011;39159;45.634;9.420;2022-10-31T09:39:20;9.82;;;3.30;;
53269;SDS011;39159;45.634;9.420;2022-10-31T09:45:14;11.73;;;3.35;;
53269;SDS011;39159;45.634;9.420;2022-10-31T09:47:53;12.77;;;3.38;;
53269;SDS011;39159;45.634;9.420;2022-10-31T09:50:47;11.45;;;3.28;;
53269;SDS011;39159;45.634;9.420;2022-10-31T09:53:27;8.98;;;3.20;;
53269;SDS011;39159;45.634;9.420;2022-10-31T09:55:55;15.40;;;3.63;;
53269;SDS011;39159;45.634;9.420;2022-10-31T09:58:25;18.63;;;2.97;;
53269;SDS011;39159;45.634;9.420;2022-10-31T10:00:52;10.60;;;3.40;;
53269;SDS011;39159;45.634;9.420;2022-10-31T10:03:25;18.42;;;4.00;;
53269;SDS011;39159;45.634;9.420;2022-10-31T10:06:13;14.90;;;3.50;;
53269;SDS011;39159;45.634;9.420;2022-10-31T10:08:42;10.00;;;3.75;;
53269;SDS011;39159;45.634;9.420;2022-10-31T10:16:50;8.95;;;2.85;;
53269;SDS011;39159;45.634;9.420;2022-10-31T10:22:12;9.02;;;3.15;;
53269;SDS011;39159;45.634;9.420;2022-10-31T10:27:41;10.43;;;3.65;;
53269;SDS011;39159;45.634;9.420;2022-10-31T10:32:42;11.07;;;3.33;;
53269;SDS011;39159;45.634;9.420;2022-10-31T10:37:46;11.18;;;3.53;;
53269;SDS011;39159;45.634;9.420;2022-10-31T10:40:18;9.93;;;3.03;;
53269;SDS011;39159;45.634;9.420;2022-10-31T10:42:59;10.73;;;2.70;;
53269;SDS011;39159;45.634;9.420;2022-10-31T10:45:59;8.98;;;2.83;;
53269;SDS011;39159;45.634;9.420;2022-10-31T10:49:06;10.82;;;3.17;;
53269;SDS011;39159;45.634;9.420;2022-10-31T10:59:45;14.30;;;3.35;;
53269;SDS011;39159;45.634;9.420;2022-10-31T11:02:31;12.95;;;3.60;;
53269;SDS011;39159;45.634;9.420;2022-10-31T11:04:58;10.18;;;3.38;;
53269;SDS011;39159;45.634;9.420;2022-10-31T11:07:25;7.68;;;2.83;;
53269;SDS011;39159;45.634;9.420;2022-10-31T11:09:51;9.90;;;2.90;;
53269;SDS011;39159;45.634;9.420;2022-10-31T11:12:20;7.00;;;2.83;;
53269;SDS011;39159;45.634;9.420;2022-10-31T11:14:58;9.60;;;3.38;;
53269;SDS011;39159;45.634;9.420;2022-10-31T11:17:32;5.43;;;2.88;;
53269;SDS011;39159;45.634;9.420;2022-10-31T11:20:24;6.82;;;2.95;;
53269;SDS011;39159;45.634;9.420;2022-10-31T11:22:59;8.55;;;3.35;;
53269;SDS011;39159;45.634;9.420;2022-10-31T11:25:26;7.68;;;2.70;;
53269;SDS011;39159;45.634;9.420;2022-10-31T11:27:58;13.23;;;3.78;;
53269;SDS011;39159;45.634;9.420;2022-10-31T11:30:25;11.65;;;3.00;;
53269;SDS011;39159;45.634;9.420;2022-10-31T11:32:51;11.90;;;3.33;;
53269;SDS011;39159;45.634;9.420;2022-10-31T11:35:17;11.02;;;3.17;;
53269;SDS011;39159;45.634;9.420;2022-10-31T11:37:46;5.97;;;2.30;;
53269;SDS011;39159;45.634;9.420;2022-10-31T11:40:15;8.00;;;3.13;;
53269;SDS011;39159;45.634;9.420;2022-10-31T11:42:50;10.20;;;2.63;;
53269;SDS011;39159;45.634;9.420;2022-10-31T11:47:49;11.02;;;3.20;;
53269;SDS011;39159;45.634;9.420;2022-10-31T11:50:25;14.38;;;3.17;;
53269;SDS011;39159;45.634;9.420;2022-10-31T11:52:53;11.00;;;3.78;;
53269;SDS011;39159;45.634;9.420;2022-10-31T11:57:55;9.02;;;2.92;;
53269;SDS011;39159;45.634;9.420;2022-10-31T12:00:25;13.57;;;3.60;;
53269;SDS011;39159;45.634;9.420;2022-10-31T12:08:37;10.85;;;2.80;;
53269;SDS011;39159;45.634;9.420;2022-10-31T12:13:42;7.80;;;3.13;;
53269;SDS011;39159;45.634;9.420;2022-10-31T12:27:28;8.07;;;3.60;;
53269;SDS011;39159;45.634;9.420;2022-10-31T12:30:52;10.52;;;3.67;;
53269;SDS011;39159;45.634;9.420;2022-10-31T12:50:50;14.27;;;5.47;;
53269;SDS011;39159;45.634;9.420;2022-10-31T13:01:45;16.52;;;5.00;;
53269;SDS011;39159;45.634;9.420;2022-10-31T13:04:18;13.63;;;4.45;;
53269;SDS011;39159;45.634;9.420;2022-10-31T13:06:53;15.25;;;5.35;;
53269;SDS011;39159;45.634;9.420;2022-10-31T13:09:36;15.88;;;5.63;;
53269;SDS011;39159;45.634;9.420;2022-10-31T13:12:11;12.15;;;4.57;;
53269;SDS011;39159;45.634;9.420;2022-10-31T13:14:43;11.05;;;4.45;;
53269;SDS011;39159;45.634;9.420;2022-10-31T13:17:16;15.90;;;4.78;;
53269;SDS011;39159;45.634;9.420;2022-10-31T13:19:53;12.07;;;4.25;;
53269;SDS011;39159;45.634;9.420;2022-10-31T13:22:31;16.58;;;4.47;;
53269;SDS011;39159;45.634;9.420;2022-10-31T13:25:09;9.63;;;4.63;;
53269;SDS011;39159;45.634;9.420;2022-10-31T13:27:42;21.05;;;4.72;;
53269;SDS011;39159;45.634;9.420;2022-10-31T13:32:46;13.55;;;4.10;;
53269;SDS011;39159;45.634;9.420;2022-10-31T13:35:40;10.93;;;3.85;;
53269;SDS011;39159;45.634;9.420;2022-10-31T13:43:48;11.73;;;4.68;;
53269;SDS011;39159;45.634;9.420;2022-10-31T13:46:45;9.95;;;4.25;;
53269;SDS011;39159;45.634;9.420;2022-10-31T13:54:39;15.60;;;4.80;;
53269;SDS011;39159;45.634;9.420;2022-10-31T13:57:07;10.98;;;4.13;;
53269;SDS011;39159;45.634;9.420;2022-10-31T13:59:46;19.80;;;4.38;;
53269;SDS011;39159;45.634;9.420;2022-10-31T14:02:19;11.82;;;3.30;;
53269;SDS011;39159;45.634;9.420;2022-10-31T14:04:51;7.72;;;3.83;;
53269;SDS011;39159;45.634;9.420;2022-10-31T14:07:21;11.43;;;3.70;;
53269;SDS011;39159;45.634;9.420;2022-10-31T14:10:19;11.07;;;3.90;;
53269;SDS011;39159;45.634;9.420;2022-10-31T14:12:51;9.93;;;3.90;;
53269;SDS011;39159;45.634;9.420;2022-10-31T14:15:20;14.18;;;3.90;;
53269;SDS011;39159;45.634;9.420;2022-10-31T14:17:56;17.27;;;3.42;;
53269;SDS011;39159;45.634;9.420;2022-10-31T14:25:26;12.23;;;4.70;;
53269;SDS011;39159;45.634;9.420;2022-10-31T14:28:21;18.20;;;5.40;;
53269;SDS011;39159;45.634;9.420;2022-10-31T14:30:57;10.88;;;4.43;;
53269;SDS011;39159;45.634;9.420;2022-10-31T14:33:25;13.05;;;4.70;;
53269;SDS011;39159;45.634;9.420;2022-10-31T14:38:38;13.60;;;4.93;;
53269;SDS011;39159;45.634;9.420;2022-10-31T14:46:18;14.52;;;4.97;;
53269;SDS011;39159;45.634;9.420;2022-10-31T14:51:36;11.73;;;4.80;;
53269;SDS011;39159;45.634;9.420;2022-10-31T14:54:06;12.68;;;5.13;;
53269;SDS011;39159;45.634;9.420;2022-10-31T14:56:40;14.25;;;5.57;;
53269;SDS011;39159;45.634;9.420;2022-10-31T14:59:15;13.45;;;4.90;;
53269;SDS011;39159;45.634;9.420;2022-10-31T15:04:44;19.83;;;5.22;;
53269;SDS011;39159;45.634;9.420;2022-10-31T15:09:42;16.08;;;5.65;;
53269;SDS011;39159;45.634;9.420;2022-10-31T15:12:25;14.40;;;5.68;;
53269;SDS011;39159;45.634;9.420;2022-10-31T15:14:52;11.85;;;5.22;;
53269;SDS011;39159;45.634;9.420;2022-10-31T15:17:18;12.00;;;5.10;;
53269;SDS011;39159;45.634;9.420;2022-10-31T15:19:45;15.02;;;5.50;;
53269;SDS011;39159;45.634;9.420;2022-10-31T15:22:14;11.45;;;5.60;;
53269;SDS011;39159;45.634;9.420;2022-10-31T15:24:41;15.70;;;5.88;;
53269;SDS011;39159;45.634;9.420;2022-10-31T15:27:16;12.10;;;5.00;;
53269;SDS011;39159;45.634;9.420;2022-10-31T15:29:49;12.07;;;5.10;;
53269;SDS011;39159;45.634;9.420;2022-10-31T15:34:48;15.13;;;6.32;;
53269;SDS011;39159;45.634;9.420;2022-10-31T15:37:15;15.50;;;5.47;;
53269;SDS011;39159;45.634;9.420;2022-10-31T15:39:43;14.63;;;6.03;;
53269;SDS011;39159;45.634;9.420;2022-10-31T15:44:50;14.13;;;5.07;;
53269;SDS011;39159;45.634;9.420;2022-10-31T15:47:19;15.52;;;5.40;;
53269;SDS011;39159;45.634;9.420;2022-10-31T15:54:51;14.15;;;5.40;;
53269;SDS011;39159;45.634;9.420;2022-10-31T15:57:20;13.60;;;4.95;;
53269;SDS011;39159;45.634;9.420;2022-10-31T15:59:48;11.70;;;5.32;;
53269;SDS011;39159;45.634;9.420;2022-10-31T16:02:17;11.43;;;4.55;;
53269;SDS011;39159;45.634;9.420;2022-10-31T16:04:53;10.97;;;5.03;;
53269;SDS011;39159;45.634;9.420;2022-10-31T16:07:23;10.18;;;4.85;;
53269;SDS011;39159;45.634;9.420;2022-10-31T16:09:56;23.17;;;5.55;;
53269;SDS011;39159;45.634;9.420;2022-10-31T16:12:25;10.70;;;5.07;;
53269;SDS011;39159;45.634;9.420;2022-10-31T16:15:02;14.00;;;5.50;;
53269;SDS011;39159;45.634;9.420;2022-10-31T16:17:29;12.32;;;4.85;;
53269;SDS011;39159;45.634;9.420;2022-10-31T16:20:00;9.65;;;4.63;;
53269;SDS011;39159;45.634;9.420;2022-10-31T16:22:29;18.42;;;5.63;;
53269;SDS011;39159;45.634;9.420;2022-10-31T16:25:01;19.58;;;6.13;;
53269;SDS011;39159;45.634;9.420;2022-10-31T16:27:31;19.63;;;6.30;;
53269;SDS011;39159;45.634;9.420;2022-10-31T16:29:59;12.90;;;5.45;;
53269;SDS011;39159;45.634;9.420;2022-10-31T16:32:30;10.10;;;5.20;;
53269;SDS011;39159;45.634;9.420;2022-10-31T16:37:39;16.92;;;6.75;;
53269;SDS011;39159;45.634;9.420;2022-10-31T16:40:05;13.80;;;5.50;;
53269;SDS011;39159;45.634;9.420;2022-10-31T16:42:31;17.20;;;5.93;;
53269;SDS011;39159;45.634;9.420;2022-10-31T16:44:57;17.20;;;6.00;;
53269;SDS011;39159;45.634;9.420;2022-10-31T16:47:23;11.02;;;5.72;;
53269;SDS011;39159;45.634;9.420;2022-10-31T16:49:49;16.15;;;5.50;;
53269;SDS011;39159;45.634;9.420;2022-10-31T16:52:15;10.85;;;5.03;;
53269;SDS011;39159;45.634;9.420;2022-10-31T16:54:41;13.15;;;5.00;;
53269;SDS011;39159;45.634;9.420;2022-10-31T16:57:09;14.45;;;5.88;;
53269;SDS011;39159;45.634;9.420;2022-10-31T16:59:39;9.18;;;5.13;;
53269;SDS011;39159;45.634;9.420;2022-10-31T17:02:05;15.80;;;5.40;;
53269;SDS011;39159;45.634;9.420;2022-10-31T17:04:38;13.68;;;6.85;;
53269;SDS011;39159;45.634;9.420;2022-10-31T17:07:04;13.43;;;5.68;;
53269;SDS011;39159;45.634;9.420;2022-10-31T17:09:29;11.93;;;6.05;;
53269;SDS011;39159;45.634;9.420;2022-10-31T17:11:55;12.65;;;5.35;;
53269;SDS011;39159;45.634;9.420;2022-10-31T17:14:20;14.93;;;5.70;;
53269;SDS011;39159;45.634;9.420;2022-10-31T17:16:46;14.77;;;6.55;;
53269;SDS011;39159;45.634;9.420;2022-10-31T17:19:11;20.35;;;7.95;;
53269;SDS011;39159;45.634;9.420;2022-10-31T17:21:37;15.45;;;6.95;;
53269;SDS011;39159;45.634;9.420;2022-10-31T17:24:03;20.20;;;7.55;;
53269;SDS011;39159;45.634;9.420;2022-10-31T17:26:29;19.60;;;7.75;;
53269;SDS011;39159;45.634;9.420;2022-10-31T17:28:55;21.88;;;8.35;;
53269;SDS011;39159;45.634;9.420;2022-10-31T17:33:47;22.85;;;7.45;;